Latest Weather Observations for Toowoomba

IDQ60801

Issued at 10:35 pm EST Wednesday 30 July 2014 (issued every 30 minutes, with the page automatically refreshed every 10 minutes)

About weather observations | Map of weather stations | Latest weather observations for QLD | Other Formats
Station Details ID: 041529 Name: TOOWOOMBA AIRPORT Lat: -27.54 Lon: 151.91 Height: 640.9 m
Data from the previous 72 hours. | See also: Recent months at Toowoomba
Date/Time
EST
Temp
°C
App
Temp
°C
Dew
Point
Rel
Hum
%
Delta-T
°C
Wind Press
QNH
hPa
Press
MSL
hPa
Rain
since 9 am
mm
Dir
 
Spd
km/h
Gust
km/h
Spd
kts
Gust
kts
30/10:30pm 11.9 8.2 -2.7 36 5.8 SSW 7 9 4 5 1023.1 - 0.0
30/10:00pm 13.0 9.0 -2.5 34 6.3 SSW 9 11 5 6 1023.3 - 0.0
30/09:30pm 13.4 9.3 -2.9 32 6.6 SSW 9 11 5 6 1023.3 - 0.0
30/09:00pm 13.8 9.7 -3.0 31 6.8 SSW 9 11 5 6 1023.3 1023.0 0.0
30/08:30pm 13.9 9.7 -3.8 29 7.1 SSW 9 9 5 5 1023.2 - 0.0
30/08:00pm 13.9 10.1 -3.8 29 7.1 SSW 7 9 4 5 1023.2 - 0.0
30/07:30pm 13.0 9.3 -4.6 29 6.8 SW 6 7 3 4 1023.1 - 0.0
30/07:00pm 14.5 10.6 -4.2 27 7.4 SW 7 7 4 4 1022.9 - 0.0
30/06:30pm 14.3 10.6 -4.4 27 7.4 SW 6 7 3 4 1022.5 - 0.0
30/06:00pm 15.1 10.9 -4.2 26 7.7 WSW 9 11 5 6 1022.4 1022.0 0.0
30/05:30pm 16.2 11.9 -4.4 24 8.3 WSW 9 13 5 7 1022.1 - 0.0
30/05:00pm 18.2 12.7 -5.1 20 9.5 WSW 15 19 8 10 1022.0 - 0.0
30/04:30pm 19.2 13.0 -5.0 19 9.9 WSW 19 24 10 13 1021.7 - 0.0
30/04:00pm 19.6 13.2 -4.6 19 10.1 W 20 24 11 13 1021.5 - 0.0
30/03:30pm 20.1 14.0 -3.5 20 10.1 W 19 24 10 13 1021.3 - 0.0
30/03:00pm 19.9 13.7 -4.4 19 10.1 W 19 30 10 16 1021.3 1020.9 0.0
30/02:30pm 20.1 13.7 -6.5 16 10.7 W 19 26 10 14 1021.3 - 0.0
30/02:00pm 19.8 13.5 -5.9 17 10.4 WSW 19 24 10 13 1021.5 - 0.0
30/01:30pm 19.6 12.7 -6.1 17 10.4 W 22 32 12 17 1021.8 - 0.0
30/01:00pm 19.3 12.5 -4.9 19 10.0 WSW 22 32 12 17 1022.3 - 0.0
30/12:30pm 19.3 13.4 -2.3 23 9.4 W 19 28 10 15 1022.7 - 0.0
30/12:00pm 18.8 12.5 -4.0 21 9.5 WSW 20 28 11 15 1023.4 1023.1 0.0
30/11:30am 17.7 11.8 -2.0 26 8.5 W 19 24 10 13 1024.0 - 0.0
30/11:00am 17.1 11.4 -1.1 29 7.9 SW 19 24 10 13 1024.5 - 0.0
30/10:30am 16.7 11.0 -0.9 30 7.7 SW 19 24 10 13 1024.7 - 0.0
30/10:00am 15.2 10.8 0.6 37 6.5 SW 13 20 7 11 1025.1 - 0.0
30/09:30am 14.5 10.2 1.1 40 6.0 SW 13 17 7 9 1025.3 - 0.0
30/09:00am 13.3 9.2 0.0 40 5.7 WSW 11 15 6 8 1025.3 1024.9 0.0
30/08:30am 12.7 8.3 0.5 43 5.3 WSW 13 17 7 9 1025.0 - 0.0
30/08:00am 12.0 8.5 1.1 47 4.8 SW 9 13 5 7 1024.8 - 0.0
30/07:30am 9.6 5.9 0.0 51 4.0 SW 9 9 5 5 1024.7 - 0.0
30/07:00am 9.9 6.8 0.3 51 4.0 W 6 7 3 4 1024.4 - 0.0
30/06:30am 9.3 6.2 0.0 52 3.9 W 6 6 3 3 1024.3 - 0.0
30/06:00am 9.3 6.0 0.0 52 3.8 W 7 7 4 4 1024.0 1023.6 0.0
30/05:30am 9.7 7.7 -0.2 50 4.1 CALM 0 0 0 0 1023.7 - 0.0
30/05:00am 9.7 7.3 -0.2 50 4.1 SW 2 6 1 3 1023.5 - 0.0
30/04:30am 10.0 6.2 -0.5 48 4.3 SSW 9 11 5 6 1023.2 - 0.0
30/04:00am 10.4 6.6 -0.4 47 4.5 SSW 9 11 5 6 1023.1 - 0.0
30/03:30am 10.2 6.5 -0.3 48 4.4 S 9 11 5 6 1023.0 - 0.0
30/03:00am 10.5 6.8 0.0 48 4.4 SSW 9 13 5 7 1023.1 1022.8 0.0
30/02:30am 10.3 6.2 0.1 49 4.3 SSW 11 15 6 8 1023.1 - 0.0
30/02:00am 11.1 6.6 -0.1 46 4.7 SSW 13 17 7 9 1023.3 - 0.0
30/01:30am 10.4 6.3 -0.1 48 4.4 S 11 15 6 8 1023.5 - 0.0
30/01:00am 10.7 7.0 -0.1 47 4.5 S 9 13 5 7 1023.9 - 0.0
30/12:30am 10.9 7.7 -0.2 46 4.7 S 6 9 3 5 1024.0 - 0.0
30/12:00am 11.5 7.4 0.0 45 4.9 SSW 11 15 6 8 1024.1 1023.7 0.0
 
Date/Time
EST
Temp
°C
App
Temp
°C
Dew
Point
Rel
Hum
%
Delta-T
°C
Wind Press
QNH
hPa
Press
MSL
hPa
Rain
since 9 am
mm
Dir
 
Spd
km/h
Gust
km/h
Spd
kts
Gust
kts
29/11:30pm 11.6 7.1 -0.2 44 5.0 SSW 13 19 7 10 1024.0 - 0.0
29/11:00pm 10.6 7.2 -0.5 46 4.6 SSW 7 9 4 5 1023.9 - 0.0
29/10:30pm 11.1 7.7 -0.7 44 4.9 S 7 9 4 5 1024.0 - 0.0
29/10:00pm 12.1 8.3 -0.4 42 5.3 S 9 13 5 7 1023.9 - 0.0
29/09:30pm 12.3 8.6 -0.2 42 5.3 SSW 9 11 5 6 1023.5 - 0.0
29/09:00pm 12.3 8.6 -0.2 42 5.3 SSW 9 11 5 6 1023.3 1023.0 0.0
29/08:30pm 12.3 8.2 -0.2 42 5.3 SSW 11 13 6 7 1023.1 - 0.0
29/08:00pm 12.3 8.2 0.1 43 5.2 SW 11 13 6 7 1022.9 - 0.0
29/07:30pm 12.7 9.4 -0.2 41 5.5 WSW 7 11 4 6 1022.7 - 0.0
29/07:00pm 12.9 8.8 -0.4 40 5.7 WSW 11 13 6 7 1022.7 - 0.0
29/06:30pm 13.1 9.4 0.2 41 5.6 SW 9 13 5 7 1022.7 - 0.0
29/06:00pm 14.0 9.9 -0.4 37 6.2 WSW 11 13 6 7 1022.5 1022.1 0.0
29/05:30pm 15.1 10.6 -0.2 35 6.7 WSW 13 17 7 9 1022.4 - 0.0
29/05:00pm 16.9 12.2 1.0 34 7.2 WSW 15 20 8 11 1022.2 - 0.0
29/04:30pm 17.9 12.8 1.0 32 7.8 WSW 17 24 9 13 1022.0 - 0.0
29/04:00pm 18.2 12.6 1.3 32 7.8 WSW 20 28 11 15 1021.8 - 0.0
29/03:30pm 18.3 12.2 0.4 30 8.1 SW 22 30 12 16 1021.8 - 0.0
29/03:09pm - - - - - - - - - - - - -
29/03:00pm 18.6 12.2 0.7 30 8.2 WSW 24 35 13 19 1022.0 1021.6 0.0
29/02:30pm 18.5 11.4 1.1 31 8.0 WSW 28 35 15 19 1022.2 - 0.0
29/02:00pm 18.1 10.8 0.3 30 8.1 WSW 28 35 15 19 1022.2 - 0.0
29/01:30pm 18.8 11.8 1.8 32 8.0 WSW 28 39 15 21 1022.4 - 0.0
29/01:00pm 18.2 10.7 1.3 32 7.8 WSW 30 43 16 23 1022.7 - 0.0
29/12:30pm 17.6 10.3 0.3 31 7.8 WSW 28 37 15 20 1023.1 - 0.0
29/12:00pm 17.2 9.9 -0.1 31 7.7 WSW 28 39 15 21 1023.7 1023.3 0.0
29/11:30am 17.1 10.3 1.1 34 7.3 WSW 26 35 14 19 1024.1 - 0.0
29/11:00am 16.5 11.2 2.9 40 6.4 WSW 20 30 11 16 1024.4 - 0.0
29/10:30am 15.2 10.0 2.4 42 5.9 WSW 19 22 10 12 1024.6 - 0.0
29/10:00am 14.4 9.0 2.3 44 5.5 SW 20 26 11 14 1024.8 - 0.0
29/09:30am 13.0 7.8 2.5 49 4.8 WSW 19 24 10 13 1024.9 - 0.0
29/09:00am 12.0 7.7 3.0 54 4.1 WSW 15 20 8 11 1024.9 1024.6 0.0
29/08:30am 10.6 6.1 2.2 56 3.7 W 15 20 8 11 1024.8 - 0.0
29/08:00am 9.8 5.6 1.9 58 3.4 WSW 13 19 7 10 1024.3 - 0.0
29/07:30am 8.5 4.3 1.6 62 3.0 W 13 17 7 9 1024.1 - 0.0
29/07:00am 7.4 3.1 0.8 63 2.7 W 13 13 7 7 1023.8 - 0.0
29/06:30am 7.5 3.5 0.7 62 2.8 W 11 13 6 7 1023.5 - 0.0
29/06:00am 7.7 3.7 0.7 61 2.9 W 11 13 6 7 1023.3 1023.0 0.0
29/05:30am 8.2 4.2 0.7 59 3.1 W 11 11 6 6 1022.9 - 0.0
29/05:00am 8.6 5.0 0.8 58 3.3 W 9 11 5 6 1022.8 - 0.0
29/04:30am 8.4 4.8 0.4 57 3.3 W 9 11 5 6 1022.5 - 0.0
29/04:00am 8.5 4.9 0.7 58 3.3 WSW 9 9 5 5 1022.5 - 0.0
29/03:30am 8.1 4.1 0.6 59 3.1 WSW 11 11 6 6 1022.5 - 0.0
29/03:00am 8.3 4.7 0.5 58 3.2 WSW 9 11 5 6 1022.5 1022.1 0.0
29/02:30am 8.6 5.0 0.6 57 3.3 W 9 11 5 6 1022.8 - 0.0
29/02:00am 9.1 5.9 0.8 56 3.5 W 7 9 4 5 1022.7 - 0.0
29/01:30am 8.4 5.2 0.9 59 3.2 SW 7 9 4 5 1023.0 - 0.0
29/01:00am 8.1 5.1 0.6 59 3.1 SSW 6 7 3 4 1023.2 - 0.0
29/12:30am 9.0 6.8 1.2 58 3.3 SSW 2 6 1 3 1023.5 - 0.0
29/12:00am 8.8 5.8 0.8 57 3.4 SSW 6 7 3 4 1023.9 1023.5 0.0
 
Date/Time
EST
Temp
°C
App
Temp
°C
Dew
Point
Rel
Hum
%
Delta-T
°C
Wind Press
QNH
hPa
Press
MSL
hPa
Rain
since 9 am
mm
Dir
 
Spd
km/h
Gust
km/h
Spd
kts
Gust
kts
28/11:30pm 9.1 5.9 0.6 55 3.6 SSW 7 9 4 5 1024.0 - 0.0
28/11:00pm 9.6 6.4 0.5 53 3.8 SSW 7 11 4 6 1024.2 - 0.0
28/10:30pm 9.8 6.5 0.2 51 4.0 SSW 7 11 4 6 1024.3 - 0.0
28/10:00pm 10.2 6.5 0.0 49 4.3 SSW 9 9 5 5 1024.3 - 0.0
28/09:30pm 10.2 5.7 0.0 49 4.3 SW 13 17 7 9 1024.3 - 0.0
28/09:00pm 10.6 6.9 -0.2 47 4.5 SSW 9 13 5 7 1024.2 1023.9 0.0
28/08:30pm 11.0 7.2 -0.5 45 4.8 SW 9 11 5 6 1024.1 - 0.0
28/08:00pm 11.7 8.0 -0.1 44 5.0 SSW 9 11 5 6 1024.0 - 0.0
28/07:30pm 11.9 8.5 -0.3 43 5.2 SSW 7 9 4 5 1023.8 - 0.0
28/07:00pm 12.1 8.8 0.2 44 5.1 SSW 7 9 4 5 1023.4 - 0.0
28/06:30pm 12.1 8.3 -1.1 40 5.5 SW 9 13 5 7 1023.3 - 0.0
28/06:00pm 13.0 9.1 -1.3 37 6.0 WSW 9 13 5 7 1023.1 1022.8 0.0
28/05:30pm 14.3 10.1 -0.9 35 6.5 W 11 15 6 8 1022.9 - 0.0
28/05:00pm 15.9 11.3 -0.8 32 7.3 W 13 19 7 10 1022.8 - 0.0
28/04:30pm 16.8 11.8 -1.3 29 7.8 W 15 20 8 11 1022.5 - 0.0
28/04:00pm 17.1 11.9 -2.5 26 8.3 W 15 22 8 12 1022.4 - 0.0
28/03:30pm 17.4 11.6 -1.8 27 8.3 WSW 19 20 10 11 1022.4 - 0.0
28/03:00pm 17.7 11.9 -1.5 27 8.3 W 19 20 10 11 1022.4 1022.0 0.0
28/02:30pm 17.4 11.8 -0.3 30 7.9 W 19 24 10 13 1022.7 - 0.0
28/02:00pm 16.8 11.1 -0.9 30 7.7 WNW 19 24 10 13 1023.0 - 0.0
28/01:30pm 16.3 10.5 -0.4 32 7.3 W 20 30 11 16 1023.4 - 0.0
28/01:00pm 16.1 10.0 0.7 35 6.9 W 22 30 12 16 1023.8 - 0.0
28/12:30pm 15.7 9.3 0.7 36 6.7 W 24 33 13 18 1024.3 - 0.0
28/12:00pm 15.3 9.4 1.4 39 6.3 W 22 32 12 17 1024.7 1024.4 0.0
28/11:30am 15.2 9.4 2.1 41 6.0 NW 22 26 12 14 1025.3 - 0.0
28/11:00am 14.6 9.5 3.1 46 5.4 W 19 26 10 14 1025.8 - 0.0
28/10:30am 14.2 9.3 2.1 44 5.5 W 17 22 9 12 1026.1 - 0.0
28/10:00am 13.7 10.1 4.8 55 4.3 WNW 13 17 7 9 1026.3 - 0.0
28/09:30am 13.3 10.0 4.5 55 4.2 NW 11 17 6 9 1026.2 - 0.0
28/09:00am 12.6 9.6 5.8 63 3.3 N 11 13 6 7 1026.0 1025.7 0.0
28/08:30am 11.8 8.9 6.3 69 2.7 N 11 15 6 8 1025.7 - 0.0
28/08:00am 10.6 9.8 8.0 84 1.3 E 2 6 1 3 1025.5 - 0.0
28/07:30am 8.4 6.2 6.4 87 1.0 NE 7 9 4 5 1024.8 - 0.0
28/07:00am 5.8 2.5 4.4 91 0.6 ENE 11 11 6 6 1024.5 - 0.0
28/06:30am 4.9 1.3 3.1 88 0.8 ENE 11 13 6 7 1024.2 - 0.0
28/06:00am 5.6 2.6 3.9 89 0.7 E 9 11 5 6 1024.2 1023.9 0.0
28/05:30am 5.3 1.8 3.3 87 0.9 E 11 13 6 7 1024.2 - 0.0
28/05:00am 8.0 5.0 5.8 86 1.0 E 11 13 6 7 1024.3 - 0.0
28/04:30am 7.5 4.8 5.5 87 0.9 E 9 11 5 6 1024.2 - 0.0
28/04:00am 6.2 2.9 2.7 78 1.5 ESE 9 9 5 5 1024.1 - 0.0
28/03:30am 8.3 5.4 2.8 68 2.4 ESE 7 7 4 4 1024.2 - 0.0
28/03:00am 6.2 3.1 0.3 66 2.4 ESE 6 7 3 4 1024.4 1024.1 0.0
28/02:30am 8.1 5.1 1.9 65 2.7 SE 7 7 4 4 1024.3 - 0.0
28/02:00am 6.7 2.9 1.6 70 2.1 E 11 13 6 7 1024.5 - 0.0
28/01:30am 9.4 5.6 1.8 59 3.3 S 11 13 6 7 1024.7 - 0.0
28/01:00am 9.5 5.8 2.1 60 3.2 S 11 13 6 7 1024.9 - 0.0
28/12:30am 9.2 5.8 1.9 60 3.2 SSW 9 11 5 6 1025.1 - 0.0
28/12:00am 9.4 6.1 2.3 61 3.1 SSW 9 13 5 7 1025.1 1024.8 0.0
 
Date/Time
EST
Temp
°C
App
Temp
°C
Dew
Point
Rel
Hum
%
Delta-T
°C
Wind Press
QNH
hPa
Press
MSL
hPa
Rain
since 9 am
mm
Dir
 
Spd
km/h
Gust
km/h
Spd
kts
Gust
kts
27/11:30pm 9.5 6.1 2.1 60 3.2 SW 9 11 5 6 1025.6 - 0.0
27/11:00pm 9.8 6.9 2.4 60 3.3 SW 7 7 4 4 1025.7 - 0.0

Other Formats:

Comma delimited format used in spreadsheet applications
http://www.bom.gov.au/fwo/IDQ60801/IDQ60801.95551.axf

JavaScript Object Notation format (JSON) in row-major order
http://www.bom.gov.au/fwo/IDQ60801/IDQ60801.95551.json